Time;durP1;ratioP1;P1;durP2;ratioP2;P2;SDS_P1;SDS_P2;PMS_P1;PMS_P2;Temp;Humidity;BMP_temperature;BMP_pressure;BME280_temperature;BME280_humidity;BME280_pressure;Samples;Min_cycle;Max_cycle;Signal;HPM_P1;HPM_P2
2022/08/03 00:00:31;;;;;;;3.50;3.20;;;;;;;15.89;100.00;96769.25;10493203;28;20651;-74
2022/08/03 00:05:32;;;;;;;3.17;2.88;;;;;;;15.96;100.00;96767.50;10493644;28;20187;-74
2022/08/03 00:10:32;;;;;;;4.28;3.20;;;;;;;15.89;100.00;96763.16;10494432;28;20829;-75
2022/08/03 00:15:33;;;;;;;3.45;3.17;;;;;;;15.81;100.00;96759.63;10493702;28;20218;-75
2022/08/03 00:20:33;;;;;;;3.50;3.17;;;;;;;15.75;100.00;96764.81;10493925;28;20290;-75
2022/08/03 00:25:35;;;;;;;3.50;3.20;;;;;;;15.76;100.00;96754.06;10493481;28;20592;-75
2022/08/03 00:30:35;;;;;;;4.18;3.38;;;;;;;15.74;100.00;96753.41;10493754;28;20179;-76
2022/08/03 00:35:36;;;;;;;3.95;3.10;;;;;;;15.78;100.00;96756.56;10493563;28;20227;-76
2022/08/03 00:40:36;;;;;;;4.88;3.20;;;;;;;15.63;100.00;96757.38;10493219;28;20603;-75
2022/08/03 00:45:39;;;;;;;3.28;2.95;;;;;;;15.68;100.00;96754.16;10493339;28;20233;-75
2022/08/03 00:50:40;;;;;;;3.75;3.38;;;;;;;15.69;100.00;96755.81;10492521;28;20678;-75
2022/08/03 00:55:41;;;;;;;5.18;3.42;;;;;;;15.52;100.00;96763.97;10492624;28;20235;-76
2022/08/03 01:00:42;;;;;;;4.55;3.30;;;;;;;15.41;100.00;96755.72;10491430;28;20195;-75
2022/08/03 01:06:07;;;;;;;3.90;3.50;;;;;;;15.25;100.00;96759.38;10508191;28;20249;-76
2022/08/03 01:11:18;;;;;;;3.50;3.20;;;;;;;15.19;100.00;96760.13;10491186;28;20567;-75
2022/08/03 01:16:40;;;;;;;3.88;3.50;;;;;;;15.11;100.00;96761.84;10491729;28;20272;-75
2022/08/03 01:22:15;;;;;;;7.00;3.60;;;;;;;15.04;100.00;96754.84;10491586;28;20746;-75
2022/08/03 01:27:21;;;;;;;4.70;3.60;;;;;;;15.03;100.00;96756.69;10492544;28;20272;-75
2022/08/03 01:32:36;;;;;;;4.22;3.38;;;;;;;15.08;100.00;96756.13;10491246;28;20215;-74
2022/08/03 01:37:56;;;;;;;3.65;3.35;;;;;;;14.87;100.00;96751.59;10497101;28;20265;-74
2022/08/03 01:42:59;;;;;;;5.15;3.83;;;;;;;14.85;100.00;96753.59;10501043;28;20194;-74
2022/08/03 01:47:59;;;;;;;3.80;3.33;;;;;;;14.76;100.00;96755.50;10509008;28;20246;-75
2022/08/03 01:53:00;;;;;;;3.22;2.92;;;;;;;14.70;100.00;96754.44;10516275;28;20259;-74
2022/08/03 01:58:02;;;;;;;4.18;3.45;;;;;;;14.57;100.00;96755.03;10499952;28;20191;-75
2022/08/03 02:03:06;;;;;;;3.67;3.38;;;;;;;14.49;100.00;96752.47;10497279;28;20590;-75
2022/08/03 02:08:07;;;;;;;4.28;3.95;;;;;;;14.45;100.00;96753.81;10498004;28;20508;-74
2022/08/03 02:13:08;;;;;;;5.45;3.78;;;;;;;14.48;100.00;96753.47;10496965;28;20280;-75
2022/08/03 02:18:09;;;;;;;4.43;3.38;;;;;;;14.55;100.00;96749.13;10498775;28;20238;-75
2022/08/03 02:23:10;;;;;;;4.60;3.47;;;;;;;14.43;100.00;96753.19;10497042;28;20202;-75
2022/08/03 02:28:16;;;;;;;5.00;3.17;;;;;;;14.49;100.00;96749.03;10479723;28;20683;-74
2022/08/03 02:33:21;;;;;;;3.58;3.28;;;;;;;14.42;100.00;96749.72;10496245;28;20231;-75
2022/08/03 02:38:26;;;;;;;3.28;2.97;;;;;;;14.33;100.00;96745.53;10496728;28;20624;-75
2022/08/03 02:43:27;;;;;;;3.92;3.53;;;;;;;14.45;100.00;96753.81;10495757;28;20229;-73
2022/08/03 02:48:29;;;;;;;4.22;3.45;;;;;;;14.53;100.00;96745.84;10495569;28;20202;-73
2022/08/03 02:53:30;;;;;;;4.05;3.67;;;;;;;14.51;100.00;96744.38;10496672;28;20288;-74
2022/08/03 02:58:31;;;;;;;4.22;3.53;;;;;;;14.57;100.00;96743.66;10495592;28;20214;-75
2022/08/03 03:03:32;;;;;;;6.00;3.20;;;;;;;14.53;100.00;96745.84;10503079;28;20617;-75
2022/08/03 03:08:32;;;;;;;4.03;3.40;;;;;;;14.57;100.00;96754.22;10533499;28;20269;-75
2022/08/03 03:13:33;;;;;;;3.22;2.92;;;;;;;14.55;100.00;96743.84;10532914;28;20219;-73
2022/08/03 03:18:33;;;;;;;4.07;3.60;;;;;;;14.44;100.00;96752.19;10532939;28;20198;-73
2022/08/03 03:23:35;;;;;;;3.00;2.80;;;;;;;14.53;100.00;96753.75;10532344;28;20552;-75
2022/08/03 03:28:36;;;;;;;3.42;3.08;;;;;;;14.50;100.00;96750.66;10505033;28;20780;-75
2022/08/03 03:33:37;;;;;;;3.78;3.03;;;;;;;14.52;100.00;96754.75;10473064;28;20272;-75
2022/08/03 03:38:37;;;;;;;3.97;3.40;;;;;;;14.63;100.00;96756.97;10490833;28;20195;-74
2022/08/03 03:43:37;;;;;;;2.88;2.63;;;;;;;14.79;100.00;96744.59;10489763;28;20243;-74
2022/08/03 03:48:38;;;;;;;3.65;3.30;;;;;;;14.90;100.00;96751.22;10489679;28;20229;-74
2022/08/03 03:53:38;;;;;;;5.32;3.05;;;;;;;14.92;100.00;96746.59;10488609;28;20292;-75
2022/08/03 03:58:39;;;;;;;4.45;3.13;;;;;;;14.85;100.00;96743.06;10488232;28;20282;-74
2022/08/03 04:03:39;;;;;;;3.45;2.90;;;;;;;14.87;100.00;96752.44;10492582;28;20198;-75
2022/08/03 04:14:18;;;;;;;3.85;3.00;;;;;;;14.97;100.00;96742.41;10492268;28;20694;-74
2022/08/03 04:19:25;;;;;;;4.22;3.47;;;;;;;14.91;100.00;96750.25;10492125;28;20756;-75
2022/08/03 04:24:34;;;;;;;4.38;2.92;;;;;;;14.87;100.00;96748.97;10486064;28;20184;-75
2022/08/03 04:29:36;;;;;;;3.55;3.17;;;;;;;14.94;100.00;96755.97;10491693;28;20223;-75
2022/08/03 04:34:37;;;;;;;3.58;3.28;;;;;;;15.01;100.00;96757.88;10491586;28;20734;-74
2022/08/03 04:39:38;;;;;;;3.30;3.00;;;;;;;15.16;100.00;96753.41;10492474;28;20195;-74
2022/08/03 04:44:41;;;;;;;4.15;2.80;;;;;;;15.33;100.00;96754.81;10491500;28;20191;-74
2022/08/03 04:49:41;;;;;;;6.57;2.83;;;;;;;15.49;100.00;96753.78;10491266;28;20191;-74
2022/08/03 04:54:43;;;;;;;3.63;2.80;;;;;;;15.80;100.00;96757.16;10491822;28;20593;-75
2022/08/03 04:59:43;;;;;;;3.20;2.80;;;;;;;16.02;100.00;96758.81;10491566;28;20191;-74
2022/08/03 05:04:45;;;;;;;3.05;2.75;;;;;;;16.23;100.00;96765.91;10491839;28;20206;-74
2022/08/03 05:09:45;;;;;;;2.92;2.60;;;;;;;16.47;100.00;96763.84;10495318;28;20191;-74
2022/08/03 05:14:46;;;;;;;5.75;2.63;;;;;;;16.74;100.00;96756.09;10500460;28;20580;-74
2022/08/03 05:19:46;;;;;;;3.90;2.63;;;;;;;17.09;100.00;96758.72;10500820;28;20527;-74
2022/08/03 05:24:46;;;;;;;3.13;2.72;;;;;;;17.34;100.00;96752.94;10500259;28;20705;-74
2022/08/03 05:29:48;;;;;;;3.15;2.60;;;;;;;17.62;100.00;96755.47;10499992;28;20585;-73
2022/08/03 05:34:48;;;;;;;2.83;2.60;;;;;;;17.91;100.00;96743.72;10499624;28;20234;-73
2022/08/03 05:39:49;;;;;;;2.85;2.35;;;;;;;18.30;100.00;96738.63;10497583;28;20647;-73
2022/08/03 05:44:49;;;;;;;3.00;2.42;;;;;;;18.64;99.56;96737.59;10498247;28;20187;-73
2022/08/03 05:49:50;;;;;;;2.83;2.53;;;;;;;19.02;96.27;96736.91;10499309;28;20191;-74
2022/08/03 05:54:50;;;;;;;3.70;2.53;;;;;;;19.40;93.10;96730.84;10498867;28;20234;-74
2022/08/03 05:59:50;;;;;;;3.05;2.40;;;;;;;19.85;89.94;96721.22;10498720;28;20191;-74
2022/08/03 06:04:51;;;;;;;2.72;2.40;;;;;;;20.29;87.94;96714.91;10497052;28;20194;-74
2022/08/03 06:09:51;;;;;;;4.78;2.50;;;;;;;20.94;82.41;96687.03;10498135;28;20199;-73
2022/08/03 06:14:52;;;;;;;2.40;2.13;;;;;;;21.49;80.56;96693.31;10497552;28;20268;-73
2022/08/03 06:19:52;;;;;;;2.70;2.20;;;;;;;22.65;74.28;96646.72;10497575;28;20191;-74
2022/08/03 06:24:53;;;;;;;2.75;2.25;;;;;;;24.08;68.48;96603.06;10496921;28;20207;-75
2022/08/03 06:29:53;;;;;;;2.90;1.85;;;;;;;25.38;63.62;96564.16;10514127;28;20746;-75
2022/08/03 06:34:53;;;;;;;2.53;2.20;;;;;;;26.44;59.63;96547.41;10502521;28;20222;-75
2022/08/03 06:39:54;;;;;;;4.10;2.03;;;;;;;27.18;57.66;96549.00;10497168;28;20457;-75
2022/08/03 06:44:54;;;;;;;3.35;2.05;;;;;;;26.74;57.44;96543.25;10495849;28;20546;-75
2022/08/03 06:49:55;;;;;;;2.83;1.83;;;;;;;27.81;54.57;96510.25;10497364;28;20191;-76
2022/08/03 06:54:57;;;;;;;4.25;2.75;;;;;;;29.08;49.81;96456.06;10496622;28;21000;-76
2022/08/03 07:00:00;;;;;;;2.88;1.80;;;;;;;28.00;53.00;96507.03;10509318;28;20642;-74
2022/08/03 07:05:01;;;;;;;2.20;1.70;;;;;;;29.34;49.71;96480.16;10535828;28;20642;-74
2022/08/03 07:10:03;;;;;;;2.85;2.15;;;;;;;30.05;46.98;96443.53;10536600;28;20202;-75
2022/08/03 07:15:04;;;;;;;2.10;1.70;;;;;;;29.16;50.03;96490.53;10517423;28;20225;-75
2022/08/03 07:20:06;;;;;;;2.25;1.98;;;;;;;30.50;46.54;96461.41;10536024;28;20555;-75
2022/08/03 07:25:07;;;;;;;4.60;1.60;;;;;;;30.50;45.15;96427.03;10507322;28;20192;-74
2022/08/03 07:30:08;;;;;;;2.60;2.00;;;;;;;30.24;44.29;96400.34;10496674;28;20187;-76
2022/08/03 07:35:09;;;;;;;4.60;1.77;;;;;;;30.78;43.15;96392.00;10532850;28;20222;-74
2022/08/03 07:40:10;;;;;;;4.55;1.83;;;;;;;30.66;44.24;96429.53;10534801;28;20201;-74
2022/08/03 07:45:10;;;;;;;2.05;1.50;;;;;;;30.06;42.54;96350.63;10534029;28;20558;-74
2022/08/03 07:50:10;;;;;;;1.50;1.40;;;;;;;31.77;40.54;96389.25;10522553;28;20601;-76
2022/08/03 07:55:11;;;;;;;2.42;1.50;;;;;;;32.60;37.23;96321.31;10528285;28;20946;-77
2022/08/03 08:00:16;;;;;;;2.57;1.47;;;;;;;28.25;43.60;96314.84;10490171;28;20234;-72
2022/08/03 08:05:17;;;;;;;3.53;1.30;;;;;;;29.40;40.59;96300.13;10518531;28;20444;-71
2022/08/03 08:10:18;;;;;;;1.90;1.70;;;;;;;29.65;42.19;96355.72;10495277;28;20206;-70
2022/08/03 08:15:18;;;;;;;1.70;1.60;;;;;;;29.03;43.05;96367.09;10520899;28;20244;-71
2022/08/03 08:20:21;;;;;;;1.63;1.52;;;;;;;30.04;41.52;96360.88;10512838;28;20198;-71
2022/08/03 08:25:21;;;;;;;4.28;1.80;;;;;;;29.50;41.70;96343.19;10521022;28;20187;-70
2022/08/03 08:30:22;;;;;;;4.50;1.70;;;;;;;28.64;42.23;96322.94;10527827;28;20195;-70
2022/08/03 08:35:23;;;;;;;1.73;1.60;;;;;;;31.77;38.37;96357.53;10521569;28;20511;-71
2022/08/03 08:40:23;;;;;;;5.63;1.77;;;;;;;32.47;38.43;96360.94;10515822;28;20195;-71
2022/08/03 08:45:24;;;;;;;1.37;1.27;;;;;;;31.83;36.52;96266.13;10500654;28;20590;-70
2022/08/03 08:50:25;;;;;;;3.63;1.88;;;;;;;30.92;36.71;96256.81;10498346;28;20504;-69
2022/08/03 08:55:25;;;;;;;4.70;1.42;;;;;;;30.92;36.51;96254.09;10486381;28;20310;-69
2022/08/03 09:00:26;;;;;;;1.60;1.48;;;;;;;29.69;37.83;96237.91;10497038;28;20268;-70
2022/08/03 09:05:30;;;;;;;2.50;1.40;;;;;;;32.01;35.31;96273.31;10506877;28;20215;-70
2022/08/03 09:10:31;;;;;;;5.00;1.40;;;;;;;31.82;34.65;96223.91;10502759;28;20195;-70
2022/08/03 09:15:32;;;;;;;1.50;1.40;;;;;;;34.10;31.25;96239.28;10489591;28;20211;-70
2022/08/03 09:20:33;;;;;;;4.05;1.60;;;;;;;34.80;32.01;96264.50;10489094;28;20940;-71
2022/08/03 09:25:41;;;;;;;1.55;1.45;;;;;;;34.65;31.58;96248.69;10492833;28;20215;-71
2022/08/03 09:30:43;;;;;;;1.38;1.23;;;;;;;35.77;29.83;96207.66;10502949;28;20251;-71
2022/08/03 09:35:48;;;;;;;1.48;1.33;;;;;;;34.21;31.27;96218.00;10492517;28;20246;-71
2022/08/03 09:40:48;;;;;;;1.50;1.40;;;;;;;34.01;31.65;96244.72;10506212;28;20238;-71
2022/08/03 09:45:51;;;;;;;1.73;1.40;;;;;;;34.45;31.45;96239.28;10529928;28;20663;-71
2022/08/03 09:50:57;;;;;;;1.50;1.40;;;;;;;32.15;32.23;96145.91;10530218;28;20626;-70
2022/08/03 09:55:59;;;;;;;1.50;1.38;;;;;;;33.35;30.13;96166.03;10531650;28;20240;-71
2022/08/03 10:01:04;;;;;;;1.70;1.35;;;;;;;31.30;34.35;96207.94;10539649;28;20183;-71
2022/08/03 10:06:15;;;;;;;1.25;1.15;;;;;;;29.73;37.10;96216.56;10538393;28;20305;-70
2022/08/03 10:11:29;;;;;;;2.13;1.45;;;;;;;30.57;34.81;96192.28;10537874;28;20182;-71
2022/08/03 10:16:37;;;;;;;1.70;1.40;;;;;;;32.46;32.41;96198.56;10532954;28;20673;-71
2022/08/03 10:21:39;;;;;;;2.25;1.30;;;;;;;30.55;34.24;96164.75;10496639;28;20702;-71
2022/08/03 10:26:41;;;;;;;1.45;1.35;;;;;;;30.75;33.46;96150.03;10499081;28;20300;-70
2022/08/03 10:31:44;;;;;;;1.55;1.17;;;;;;;32.00;31.92;96152.47;10531535;28;20194;-71
2022/08/03 10:36:45;;;;;;;1.50;1.30;;;;;;;32.49;30.77;96149.91;10534709;28;20213;-71
2022/08/03 10:41:47;;;;;;;4.20;1.40;;;;;;;32.51;30.13;96133.34;10534502;28;20252;-71
2022/08/03 10:46:49;;;;;;;5.43;1.42;;;;;;;31.60;31.02;96105.53;10513908;28;20260;-71
2022/08/03 10:51:49;;;;;;;1.00;1.00;;;;;;;31.27;30.08;96052.38;10530998;28;20723;-71
2022/08/03 11:02:09;;;;;;;3.53;1.20;;;;;;;33.81;27.95;96123.88;10532994;28;20190;-70
2022/08/03 11:07:16;;;;;;;1.40;1.30;;;;;;;35.03;27.35;96140.97;10534575;28;20217;-71
2022/08/03 11:12:22;;;;;;;1.40;1.30;;;;;;;32.41;28.93;96044.16;10534353;28;20490;-71
2022/08/03 11:17:23;;;;;;;2.15;1.30;;;;;;;30.74;30.64;96047.56;10514656;28;20293;-71
2022/08/03 11:22:23;;;;;;;2.38;1.40;;;;;;;33.26;28.74;96125.28;10492331;28;20187;-71
2022/08/03 11:27:29;;;;;;;1.20;1.10;;;;;;;35.85;26.83;96168.66;10490886;28;20184;-71
2022/08/03 11:32:42;;;;;;;3.90;1.23;;;;;;;35.71;26.35;96094.50;10492656;28;20588;-70
2022/08/03 11:37:57;;;;;;;1.00;1.00;;;;;;;33.25;29.26;96093.84;10524096;28;20221;-71
2022/08/03 11:42:57;;;;;;;1.98;1.10;;;;;;;34.17;28.49;96105.56;10531557;28;20312;-71
2022/08/03 11:48:02;;;;;;;2.07;1.10;;;;;;;32.89;30.08;96122.00;10531962;28;20194;-71
2022/08/03 11:53:04;;;;;;;1.67;1.50;;;;;;;34.65;27.83;96112.63;10530790;28;21071;-71
2022/08/03 11:58:04;;;;;;;1.23;1.13;;;;;;;37.94;25.75;96207.41;10531184;28;20665;-71
2022/08/03 12:03:07;;;;;;;1.40;1.17;;;;;;;38.20;24.64;96135.84;10532270;28;20283;-71
2022/08/03 12:08:09;;;;;;;0.95;0.93;;;;;;;39.56;23.12;96135.59;10531307;28;20186;-71
2022/08/03 12:13:09;;;;;;;2.38;1.58;;;;;;;34.66;28.91;96103.34;10532410;28;20182;-71
2022/08/03 12:18:15;;;;;;;3.53;1.50;;;;;;;35.69;28.35;96154.78;10529001;28;20192;-71
2022/08/03 12:23:16;;;;;;;6.30;1.48;;;;;;;38.28;26.70;96216.97;10530958;28;20471;-71
2022/08/03 12:28:18;;;;;;;3.28;1.42;;;;;;;39.82;24.13;96185.44;10531406;28;20559;-71
2022/08/03 12:33:23;;;;;;;2.05;1.48;;;;;;;40.10;24.63;96196.22;10530995;28;20289;-71
2022/08/03 12:38:24;;;;;;;1.35;1.25;;;;;;;41.68;22.46;96195.31;10530350;28;20239;-71
2022/08/03 12:43:24;;;;;;;1.30;1.20;;;;;;;41.08;23.45;96172.06;10531615;28;20230;-72
2022/08/03 12:48:25;;;;;;;1.55;1.45;;;;;;;42.20;22.14;96155.09;10530691;28;20194;-71
2022/08/03 12:53:29;;;;;;;3.00;1.87;;;;;;;34.99;28.81;96042.81;10528574;28;20318;-71
2022/08/03 12:58:34;;;;;;;1.90;1.80;;;;;;;34.45;29.42;96087.75;10508627;28;20197;-71
2022/08/03 13:03:39;;;;;;;2.03;1.63;;;;;;;34.91;30.36;96155.28;10504027;28;20218;-71
2022/08/03 13:08:40;;;;;;;2.22;1.80;;;;;;;36.50;28.36;96157.25;10487681;28;20194;-71
2022/08/03 13:13:40;;;;;;;2.33;1.75;;;;;;;35.81;27.59;96094.13;10486457;28;20229;-71
2022/08/03 13:18:40;;;;;;;2.23;2.10;;;;;;;34.13;31.58;96160.59;10488393;28;20259;-71
2022/08/03 13:23:41;;;;;;;7.00;2.33;;;;;;;34.05;30.87;96147.03;10494564;28;20487;-71
2022/08/03 13:28:42;;;;;;;4.68;2.10;;;;;;;34.70;30.14;96152.47;10528806;28;20428;-71
2022/08/03 13:33:42;;;;;;;7.28;3.60;;;;;;;36.71;28.51;96175.47;10536191;28;20205;-71
2022/08/03 13:38:42;;;;;;;6.73;2.33;;;;;;;35.51;30.19;96183.28;10537737;28;20657;-71
2022/08/03 13:43:43;;;;;;;4.17;2.13;;;;;;;35.63;30.04;96185.31;10536565;28;20954;-72
2022/08/03 13:48:43;;;;;;;9.43;2.60;;;;;;;34.12;32.21;96174.50;10532358;28;20791;-72
2022/08/03 13:53:43;;;;;;;3.40;2.00;;;;;;;36.72;29.55;96215.28;10510327;28;20488;-76
2022/08/03 13:58:44;;;;;;;3.13;2.13;;;;;;;35.67;29.50;96139.91;10517648;28;20647;-76
2022/08/03 14:03:47;;;;;;;2.77;2.00;;;;;;;37.53;28.42;96196.44;10497618;28;20271;-76
2022/08/03 14:08:48;;;;;;;2.20;2.00;;;;;;;41.91;23.88;96230.22;10496683;28;20190;-76
2022/08/03 14:13:48;;;;;;;2.53;2.03;;;;;;;42.72;23.47;96229.59;10511029;28;20193;-76
2022/08/03 14:18:48;;;;;;;2.03;1.93;;;;;;;40.16;25.61;96161.84;10521397;28;20745;-76
2022/08/03 14:23:49;;;;;;;2.63;1.90;;;;;;;41.38;24.17;96184.31;10496942;28;20764;-77
2022/08/03 14:28:49;;;;;;;3.00;1.80;;;;;;;38.16;26.21;96081.00;10522656;28;20661;-76
2022/08/03 14:33:49;;;;;;;1.90;1.80;;;;;;;38.18;26.42;96088.88;10516750;28;20615;-75
2022/08/03 14:38:50;;;;;;;2.13;1.80;;;;;;;37.46;26.50;96084.97;10496155;28;20197;-75
2022/08/03 14:43:51;;;;;;;3.17;2.03;;;;;;;40.01;25.20;96165.47;10519345;28;20209;-75
2022/08/03 14:48:52;;;;;;;2.60;2.10;;;;;;;36.23;28.29;96063.19;10499684;28;20451;-74
2022/08/03 14:53:52;;;;;;;2.97;2.17;;;;;;;31.69;34.60;96089.34;10494429;28;20225;-75
2022/08/03 14:58:52;;;;;;;2.73;2.03;;;;;;;33.26;32.28;96125.28;10495672;28;20457;-76
2022/08/03 15:03:53;;;;;;;2.40;1.80;;;;;;;35.52;29.69;96130.41;10517441;28;20563;-75
2022/08/03 15:08:53;;;;;;;3.40;2.00;;;;;;;36.81;28.88;96166.06;10531965;28;20443;-76
2022/08/03 15:13:53;;;;;;;3.87;1.83;;;;;;;39.26;26.82;96206.56;10524894;28;20453;-76
2022/08/03 15:18:54;;;;;;;8.10;1.80;;;;;;;39.93;25.39;96135.13;10513320;28;20972;-76
2022/08/03 15:23:54;;;;;;;5.73;1.77;;;;;;;38.48;26.46;96107.63;10493519;28;20584;-76
2022/08/03 15:28:56;;;;;;;3.20;2.07;;;;;;;36.68;28.76;96124.28;10494750;28;20659;-72
2022/08/03 15:33:57;;;;;;;2.13;1.83;;;;;;;38.16;27.48;96146.66;10506267;28;20202;-72
2022/08/03 15:38:57;;;;;;;2.63;1.87;;;;;;;38.61;27.05;96152.09;10502289;28;20225;-72
2022/08/03 15:43:57;;;;;;;4.97;2.00;;;;;;;36.68;27.92;96053.31;10533208;28;20322;-72
2022/08/03 15:48:58;;;;;;;2.13;1.88;;;;;;;36.02;29.04;96085.88;10532145;28;20182;-72
2022/08/03 15:53:58;;;;;;;1.83;1.70;;;;;;;34.79;30.34;96074.34;10511678;28;20276;-71
2022/08/03 15:58:58;;;;;;;2.00;1.90;;;;;;;34.86;30.97;96092.84;10513676;28;20535;-71
2022/08/03 16:03:59;;;;;;;2.13;1.87;;;;;;;34.72;31.21;96115.66;10534212;28;20476;-71
2022/08/03 16:08:59;;;;;;;3.10;1.77;;;;;;;34.07;33.23;96151.00;10534236;28;20447;-72
2022/08/03 16:13:59;;;;;;;5.70;2.37;;;;;;;33.88;34.21;96172.31;10535789;28;20452;-71
2022/08/03 16:19:00;;;;;;;10.83;2.17;;;;;;;33.87;34.71;96189.75;10535641;28;20490;-72
2022/08/03 16:24:02;;;;;;;12.17;2.33;;;;;;;33.38;36.47;96220.50;10533319;28;20479;-71
2022/08/03 16:29:02;;;;;;;10.27;2.10;;;;;;;32.68;36.55;96219.41;10532795;28;20520;-72
2022/08/03 16:34:03;;;;;;;7.10;2.38;;;;;;;32.60;37.35;96225.59;10533992;28;20211;-72
2022/08/03 16:39:03;;;;;;;8.03;2.90;;;;;;;32.72;38.64;96271.94;10533915;28;20272;-72
2022/08/03 16:44:03;;;;;;;3.77;1.90;;;;;;;32.68;38.62;96277.22;10534572;28;20717;-72
2022/08/03 16:49:04;;;;;;;8.87;2.93;;;;;;;33.21;36.30;96240.25;10533268;28;21003;-72
2022/08/03 16:54:04;;;;;;;8.43;2.37;;;;;;;33.54;36.49;96241.78;10531187;28;20992;-72
2022/08/03 16:59:05;;;;;;;4.00;1.98;;;;;;;34.22;34.06;96209.53;10530879;28;21196;-71
2022/08/03 17:04:06;;;;;;;4.30;1.70;;;;;;;34.46;31.17;96113.84;10531246;28;20698;-72
2022/08/03 17:09:15;;;;;;;2.70;1.63;;;;;;;34.34;31.66;96131.97;10530569;28;20186;-71
2022/08/03 17:14:18;;;;;;;3.47;1.90;;;;;;;31.64;35.42;96128.97;10531416;28;20235;-71
2022/08/03 17:19:20;;;;;;;1.70;1.60;;;;;;;31.26;35.80;96145.50;10531353;28;20704;-72
2022/08/03 17:24:31;;;;;;;4.35;1.73;;;;;;;31.11;37.10;96194.53;10530703;28;20222;-71
2022/08/03 17:29:33;;;;;;;8.10;2.13;;;;;;;29.98;38.93;96199.19;10530239;28;20199;-71
2022/08/03 17:34:34;;;;;;;4.00;2.20;;;;;;;29.92;39.97;96230.06;10513157;28;20219;-72
2022/08/03 17:39:34;;;;;;;4.82;2.28;;;;;;;29.87;41.40;96287.66;10529375;28;20206;-71
2022/08/03 17:44:36;;;;;;;2.20;2.00;;;;;;;28.65;42.64;96291.38;10529436;28;20753;-71
2022/08/03 17:49:37;;;;;;;8.63;2.05;;;;;;;28.20;43.78;96307.63;10530772;28;20198;-71
2022/08/03 17:54:44;;;;;;;2.10;1.90;;;;;;;28.72;47.51;96426.66;10530120;28;20599;-71
2022/08/03 17:59:50;;;;;;;4.78;2.20;;;;;;;28.90;45.96;96402.78;10530269;28;20493;-72
2022/08/03 18:04:55;;;;;;;2.40;2.10;;;;;;;27.56;48.54;96423.09;10530771;28;20241;-71
2022/08/03 18:09:58;;;;;;;4.05;2.03;;;;;;;26.58;48.45;96400.75;10529911;28;20190;-71
2022/08/03 18:14:59;;;;;;;2.38;2.17;;;;;;;26.85;50.84;96458.88;10530721;28;20256;-72
2022/08/03 18:20:00;;;;;;;8.07;6.78;;;;;;;26.85;51.45;96477.72;10535385;28;20949;-71
2022/08/03 18:25:01;;;;;;;5.00;3.55;;;;;;;26.20;53.35;96494.13;10537423;28;20215;-71
2022/08/03 18:30:02;;;;;;;11.32;3.08;;;;;;;25.61;54.57;96493.25;10536644;28;20195;-71
2022/08/03 18:35:03;;;;;;;7.28;2.63;;;;;;;25.38;55.20;96499.00;10538041;28;20272;-71
2022/08/03 18:40:05;;;;;;;12.07;2.20;;;;;;;25.37;55.46;96516.16;10537813;28;20285;-71
2022/08/03 18:45:06;;;;;;;4.25;3.00;;;;;;;25.06;56.23;96513.19;10537612;28;20230;-71
2022/08/03 18:50:28;;;;;;;4.10;2.58;;;;;;;24.65;57.26;96526.97;10537040;28;20252;-71
2022/08/03 18:55:30;;;;;;;4.25;2.78;;;;;;;24.14;59.79;96561.94;10529133;28;20288;-71
2022/08/03 19:00:33;;;;;;;4.30;2.33;;;;;;;24.12;59.69;96564.06;10537198;28;20646;-70
2022/08/03 19:05:42;;;;;;;3.88;2.83;;;;;;;23.64;62.17;96584.16;10538698;28;20218;-71
2022/08/03 19:10:46;;;;;;;3.90;2.95;;;;;;;23.62;60.97;96549.66;10536622;28;20194;-71
2022/08/03 19:15:47;;;;;;;3.97;2.40;;;;;;;23.34;62.32;96569.25;10536582;28;20254;-71
2022/08/03 19:20:51;;;;;;;4.43;3.25;;;;;;;23.11;63.31;96570.19;10534874;28;20226;-70
2022/08/03 19:25:52;;;;;;;6.85;3.10;;;;;;;23.20;62.82;96557.22;10535087;28;20635;-71
2022/08/03 19:30:54;;;;;;;8.27;5.30;;;;;;;23.12;63.30;96566.47;10528423;28;20210;-71
2022/08/03 19:35:54;;;;;;;6.65;2.92;;;;;;;22.83;64.62;96587.00;10510599;28;20394;-70
2022/08/03 19:40:57;;;;;;;9.63;4.45;;;;;;;22.44;65.74;96583.03;10509597;28;20191;-71
2022/08/03 19:45:58;;;;;;;2.67;2.47;;;;;;;22.55;66.07;96583.25;10513164;28;20226;-71
2022/08/03 19:50:59;;;;;;;4.57;3.00;;;;;;;22.54;66.36;96577.13;10505116;28;20187;-71
2022/08/03 19:56:03;;;;;;;4.78;2.80;;;;;;;22.52;66.40;96573.84;10474353;28;20305;-70
2022/08/03 20:01:04;;;;;;;4.72;2.60;;;;;;;22.57;66.00;96575.81;10492439;28;20659;-70
2022/08/03 20:06:04;;;;;;;4.10;3.15;;;;;;;22.59;65.66;96561.19;10530571;28;20280;-70
2022/08/03 20:11:05;;;;;;;4.22;2.67;;;;;;;22.49;66.36;96570.84;10532953;28;20202;-70
2022/08/03 20:16:05;;;;;;;6.15;2.92;;;;;;;22.40;66.60;96571.22;10516343;28;20661;-70
2022/08/03 20:21:11;;;;;;;2.60;2.40;;;;;;;22.27;67.22;96571.44;10533188;28;20657;-70
2022/08/03 20:26:15;;;;;;;4.05;2.92;;;;;;;22.21;67.66;96583.06;10532577;28;20279;-70
2022/08/03 20:31:15;;;;;;;4.32;2.92;;;;;;;22.11;68.11;96583.63;10514482;28;20201;-71
2022/08/03 20:36:17;;;;;;;5.50;2.85;;;;;;;22.02;68.28;96579.69;10531865;28;20344;-71
2022/08/03 20:41:18;;;;;;;8.30;3.45;;;;;;;21.95;68.59;96579.00;10530944;28;20304;-70
2022/08/03 20:46:19;;;;;;;2.90;2.40;;;;;;;21.93;68.56;96576.56;10531404;28;20275;-71
2022/08/03 20:51:20;;;;;;;6.18;3.22;;;;;;;21.81;69.19;96581.09;10532276;28;20190;-71
2022/08/03 20:56:21;;;;;;;5.10;3.13;;;;;;;21.78;69.44;96578.91;10531513;28;20321;-71
2022/08/03 21:01:21;;;;;;;3.08;2.58;;;;;;;21.65;69.93;96578.03;10532123;28;20650;-71
2022/08/03 21:06:23;;;;;;;5.55;3.10;;;;;;;21.53;70.52;96593.22;10532110;28;20222;-71
2022/08/03 21:11:24;;;;;;;4.50;2.83;;;;;;;21.60;70.31;96588.59;10532232;28;20598;-70
2022/08/03 21:16:27;;;;;;;4.38;3.05;;;;;;;21.37;71.14;96586.69;10530805;28;20196;-71
2022/08/03 21:21:30;;;;;;;3.63;2.97;;;;;;;21.48;70.88;96587.75;10530407;28;20191;-70
2022/08/03 21:26:32;;;;;;;4.45;2.83;;;;;;;21.45;71.19;96585.53;10531393;28;20645;-70
2022/08/03 21:31:33;;;;;;;3.22;2.55;;;;;;;21.40;71.13;96585.41;10529651;28;20201;-71
2022/08/03 21:36:35;;;;;;;5.32;3.00;;;;;;;21.25;71.76;96586.63;10531323;28;20699;-70
2022/08/03 21:41:37;;;;;;;3.60;2.88;;;;;;;21.34;71.62;96577.28;10532131;28;20214;-70
2022/08/03 21:46:41;;;;;;;4.95;2.97;;;;;;;21.40;71.03;96572.09;10533009;28;20284;-71
2022/08/03 21:51:41;;;;;;;4.75;2.53;;;;;;;21.38;70.99;96583.78;10534551;28;20198;-70
2022/08/03 21:56:43;;;;;;;6.78;2.97;;;;;;;21.37;70.59;96571.50;10540988;28;20323;-71
2022/08/03 22:01:46;;;;;;;4.20;2.80;;;;;;;21.34;70.76;96573.81;10539784;28;20201;-71
2022/08/03 22:06:46;;;;;;;4.80;3.03;;;;;;;21.45;70.10;96564.22;10540185;28;20278;-71
2022/08/03 22:11:49;;;;;;;2.70;2.40;;;;;;;21.34;70.79;96569.28;10540469;28;20194;-71
2022/08/03 22:16:50;;;;;;;3.67;2.65;;;;;;;21.25;70.88;96573.31;10540567;28;20187;-71
2022/08/03 22:21:50;;;;;;;3.67;2.80;;;;;;;21.32;70.42;96560.72;10539958;28;20655;-71
2022/08/03 22:32:09;;;;;;;4.57;3.00;;;;;;;21.29;70.36;96569.16;10538946;28;20270;-71
2022/08/03 22:37:10;;;;;;;6.47;2.70;;;;;;;21.25;70.47;96569.84;10538612;28;20321;-70
2022/08/03 22:42:10;;;;;;;4.43;3.00;;;;;;;21.26;69.92;96566.16;10539088;28;20244;-71
2022/08/03 22:47:11;;;;;;;4.38;2.90;;;;;;;21.27;69.64;96563.25;10539264;28;20585;-70
2022/08/03 22:52:13;;;;;;;2.78;2.50;;;;;;;21.27;69.46;96563.25;10538220;28;20321;-70
2022/08/03 22:57:14;;;;;;;3.72;2.60;;;;;;;21.26;69.42;96564.28;10532827;28;20194;-71
2022/08/03 23:02:18;;;;;;;6.13;3.00;;;;;;;21.18;69.53;96556.63;10535486;28;20222;-71
2022/08/03 23:07:20;;;;;;;4.53;2.80;;;;;;;21.22;69.30;96555.13;10537852;28;20576;-71
2022/08/03 23:12:22;;;;;;;5.53;2.67;;;;;;;21.18;69.21;96551.31;10537208;28;20189;-71
2022/08/03 23:17:23;;;;;;;4.47;2.40;;;;;;;21.09;69.13;96550.81;10537880;28;20187;-71
2022/08/03 23:22:23;;;;;;;4.20;3.20;;;;;;;21.16;68.75;96548.88;10536497;28;20186;-71
2022/08/03 23:27:25;;;;;;;3.53;2.35;;;;;;;21.17;68.44;96547.00;10536098;28;20218;-71
2022/08/03 23:32:28;;;;;;;4.95;2.70;;;;;;;21.21;68.28;96548.19;10536918;28;20239;-70
2022/08/03 23:37:28;;;;;;;4.15;2.80;;;;;;;21.22;67.75;96539.13;10537666;28;20222;-71